Latest Weather Observations for Dalby

IDQ60801

Issued at 5:35 pm EST Sunday 26 October 2014 (issued every 30 minutes, with the page automatically refreshed every 10 minutes)

About weather observations | Map of weather stations | Latest weather observations for QLD | Other Formats
Station Details ID: 041522 Name: DALBY AIRPORT Lat: -27.16 Lon: 151.26 Height: 343.9 m
Data from the previous 72 hours. | See also: Recent months at Dalby
Date/Time
EST
Temp
°C
App
Temp
°C
Dew
Point
Rel
Hum
%
Delta-T
°C
Wind Press
QNH
hPa
Press
MSL
hPa
Rain
since 9 am
mm
Dir
 
Spd
km/h
Gust
km/h
Spd
kts
Gust
kts
26/05:30pm 35.6 30.5 4.0 14 17.0 NW 20 26 11 14 1010.5 1009.2 0.0
26/05:00pm 36.5 31.5 3.7 13 17.6 NNW 19 28 10 15 1010.2 1008.9 0.0
26/04:30pm 35.6 32.0 3.0 13 17.2 NNW 11 17 6 9 1010.3 1009.0 0.0
26/04:00pm 36.3 31.1 3.5 13 17.5 NW 20 32 11 17 1010.4 1009.1 0.0
26/03:30pm 36.7 33.3 3.8 13 17.7 W 11 24 6 13 1010.6 1009.3 0.0
26/03:00pm 36.4 32.2 3.6 13 17.6 WNW 15 24 8 13 1010.8 1009.5 0.0
26/02:30pm 36.2 32.7 3.4 13 17.5 NNE 11 15 6 8 1011.2 1009.9 0.0
26/02:00pm 36.4 33.3 3.6 13 17.6 N 9 19 5 10 1011.8 1010.4 0.0
26/01:30pm 35.9 30.6 3.2 13 17.3 NNW 20 28 11 15 1012.5 1011.1 0.0
26/01:00pm 36.1 30.5 5.4 15 16.9 WNW 24 32 13 17 1013.1 1011.8 0.0
26/12:30pm 35.8 30.9 7.0 17 16.2 N 22 35 12 19 1013.7 1012.4 0.0
26/12:00pm 34.4 29.6 8.9 21 14.7 NW 24 39 13 21 1014.3 1013.0 0.0
26/11:30am 33.8 29.2 9.8 23 14.0 NNW 24 33 13 18 1014.9 1013.5 0.0
26/11:00am 32.9 28.8 11.4 27 12.8 NW 24 33 13 18 1015.4 1014.1 0.0
26/10:30am 31.5 27.2 10.8 28 12.1 NW 24 35 13 19 1015.8 1014.5 0.0
26/10:00am 30.2 25.6 11.2 31 11.1 NW 26 39 14 21 1016.3 1015.0 0.0
26/09:30am 28.5 24.4 11.6 35 9.9 NNW 24 35 13 19 1016.7 1015.4 0.0
26/09:00am 27.4 22.6 11.8 38 9.1 NNW 28 37 15 20 1016.9 1015.6 0.0
26/08:30am 26.3 21.6 12.0 41 8.3 NNW 28 35 15 19 1017.0 1015.7 0.0
26/08:00am 25.6 20.3 12.4 43 7.7 NNW 32 43 17 23 1017.1 1015.8 0.0
26/07:30am 24.6 20.1 12.5 46 7.1 NNW 28 35 15 19 1017.1 1015.8 0.0
26/07:00am 22.9 20.8 12.5 52 6.0 NNW 15 20 8 11 1016.8 1015.5 0.0
26/06:30am 20.8 20.9 11.4 55 5.3 NNE 2 6 1 3 1016.7 1015.4 0.0
26/06:00am 18.3 17.5 10.9 62 4.1 ENE 6 9 3 5 1016.4 1015.1 0.0
26/05:30am 15.1 13.6 9.2 68 3.1 ENE 7 9 4 5 1016.2 1014.9 0.0
26/05:00am 15.0 12.6 8.5 65 3.3 E 11 11 6 6 1015.8 1014.5 0.0
26/04:30am 16.3 13.9 8.5 60 4.0 ESE 11 11 6 6 1015.9 1014.6 0.0
26/04:00am 17.0 15.1 8.9 59 4.3 ESE 9 11 5 6 1015.7 1014.4 0.0
26/03:30am 17.8 15.7 9.7 59 4.3 ESE 11 13 6 7 1015.7 1014.4 0.0
26/03:00am 18.7 16.4 10.3 58 4.6 ESE 13 13 7 7 1015.6 1014.3 0.0
26/02:30am 20.2 18.5 11.1 56 5.1 E 11 13 6 7 1015.6 1014.3 0.0
26/02:00am 21.9 19.5 11.3 51 6.0 N 15 20 8 11 1015.4 1014.1 0.0
26/01:30am 22.2 19.3 11.0 49 6.3 N 17 22 9 12 1015.6 1014.3 0.0
26/01:00am 21.9 20.7 10.4 48 6.4 N 7 11 4 6 1016.0 1014.7 0.0
26/12:30am 22.9 19.3 10.0 44 7.1 N 19 20 10 11 1016.4 1015.1 0.0
26/12:00am 23.6 20.0 9.9 42 7.6 N 19 22 10 12 1016.6 1015.3 0.0
 
Date/Time
EST
Temp
°C
App
Temp
°C
Dew
Point
Rel
Hum
%
Delta-T
°C
Wind Press
QNH
hPa
Press
MSL
hPa
Rain
since 9 am
mm
Dir
 
Spd
km/h
Gust
km/h
Spd
kts
Gust
kts
25/11:30pm 23.8 20.6 9.8 41 7.8 N 17 20 9 11 1016.6 1015.3 0.0
25/11:00pm 24.2 20.1 8.6 37 8.5 N 20 24 11 13 1016.6 1015.3 0.0
25/10:30pm 24.1 20.5 8.5 37 8.5 N 17 20 9 11 1016.6 1015.3 0.0
25/10:00pm 23.3 21.3 8.6 39 8.0 NNE 9 15 5 8 1016.6 1015.3 0.0
25/09:30pm 20.9 16.7 4.0 33 8.3 N 15 17 8 9 1016.5 1015.2 0.0
25/09:00pm 21.9 18.6 4.5 32 8.7 NE 11 13 6 7 1016.3 1015.0 0.0
25/08:30pm 23.2 21.6 4.7 30 9.3 NNW 2 7 1 4 1016.2 1014.9 0.0
25/08:00pm 24.9 23.2 4.1 26 10.5 N 2 9 1 5 1016.0 1014.7 0.0
25/07:30pm 25.0 22.6 4.2 26 10.5 S 6 9 3 5 1015.7 1014.4 0.0
25/07:00pm 27.7 25.4 4.7 23 11.9 W 6 7 3 4 1015.3 1014.0 0.0
25/06:30pm 29.9 27.1 5.2 21 13.1 W 9 11 5 6 1015.0 1013.6 0.0
25/06:00pm 31.4 28.0 4.2 18 14.3 W 11 15 6 8 1014.6 1013.3 0.0
25/05:30pm 33.8 29.6 3.6 15 15.9 WSW 15 20 8 11 1014.3 1013.0 0.0
25/05:00pm 34.5 30.0 4.1 15 16.2 SW 17 26 9 14 1014.2 1012.9 0.0
25/04:30pm 34.6 30.7 3.2 14 16.5 SW 13 24 7 13 1014.3 1013.0 0.0
25/04:00pm 34.5 31.1 5.9 17 15.7 WNW 13 24 7 13 1014.4 1013.1 0.0
25/03:30pm 34.4 31.0 5.8 17 15.7 W 13 26 7 14 1014.5 1013.2 0.0
25/03:00pm 34.5 29.9 6.7 18 15.5 W 20 26 11 14 1014.9 1013.5 0.0
25/02:30pm 34.3 30.6 8.1 20 14.9 NNW 17 28 9 15 1015.3 1014.0 0.0
25/02:00pm 33.0 30.2 8.5 22 13.9 W 13 17 7 9 1015.8 1014.5 0.0
25/01:30pm 32.5 28.0 8.7 23 13.5 W 22 35 12 19 1016.4 1015.1 0.0
25/01:00pm 32.5 28.4 8.7 23 13.5 WNW 20 32 11 17 1017.0 1015.7 0.0
25/12:30pm 31.4 27.5 9.6 26 12.5 NW 20 32 11 17 1017.6 1016.4 0.0
25/12:00pm 30.1 26.4 10.1 29 11.5 NW 20 30 11 16 1018.2 1016.9 0.0
25/11:30am 30.1 26.3 11.1 31 11.1 NW 22 39 12 21 1018.6 1017.3 0.0
25/11:00am 28.2 23.9 10.9 34 10.0 NNW 24 39 13 21 1019.2 1017.9 0.0
25/10:30am 27.6 22.8 11.6 37 9.3 NNW 28 37 15 20 1019.5 1018.2 0.0
25/10:00am 25.9 21.8 11.3 40 8.4 NNW 24 35 13 19 1020.2 1019.0 0.0
25/09:30am 25.4 21.7 11.6 42 8.0 NNW 22 32 12 17 1020.5 1019.3 0.0
25/09:00am 23.7 20.1 11.7 47 6.9 NNW 22 30 12 16 1021.1 1019.8 0.0
25/08:30am 22.6 18.0 12.3 52 5.9 NNW 28 41 15 22 1021.3 1020.0 0.0
25/08:00am 21.4 17.2 12.3 56 5.2 N 26 33 14 18 1021.3 1020.0 0.0
25/07:30am 20.3 14.9 12.3 60 4.6 N 32 39 17 21 1021.3 1020.0 0.0
25/07:00am 19.1 14.7 12.8 67 3.6 N 28 33 15 18 1021.3 1020.0 0.0
25/06:30am 17.8 14.1 12.7 72 2.9 N 24 28 13 15 1021.2 1019.9 0.0
25/06:00am 16.5 13.0 12.1 75 2.4 N 22 28 12 15 1021.1 1019.8 0.0
25/05:30am 16.2 12.3 12.0 76 2.3 NNW 24 28 13 15 1020.6 1019.4 0.0
25/05:00am 16.0 12.8 11.8 76 2.3 NNW 20 26 11 14 1020.2 1019.0 0.0
25/04:30am 16.4 12.5 12.0 75 2.4 NNW 24 30 13 16 1019.6 1018.3 0.0
25/04:00am 16.6 13.3 11.7 73 2.7 NW 20 26 11 14 1019.2 1017.9 0.0
25/03:30am 16.8 13.7 11.5 71 2.9 NW 19 24 10 13 1018.7 1017.4 0.0
25/03:00am 16.8 14.9 11.7 72 2.8 NW 13 15 7 8 1018.5 1017.2 0.0
25/02:30am 16.9 15.6 11.2 69 3.1 NW 9 11 5 6 1018.5 1017.2 0.0
25/02:00am 17.5 16.2 11.3 67 3.4 NW 9 11 5 6 1018.4 1017.1 0.0
25/01:30am 18.5 16.5 11.6 64 3.8 NNW 13 17 7 9 1018.6 1017.3 0.0
25/01:00am 18.8 16.5 11.9 64 3.9 NNW 15 15 8 8 1018.7 1017.4 0.0
25/12:30am 19.0 17.8 11.6 62 4.1 N 9 11 5 6 1019.0 1017.7 0.0
25/12:00am 18.6 17.5 10.7 60 4.3 NNE 7 9 4 5 1019.4 1018.1 0.0
 
Date/Time
EST
Temp
°C
App
Temp
°C
Dew
Point
Rel
Hum
%
Delta-T
°C
Wind Press
QNH
hPa
Press
MSL
hPa
Rain
since 9 am
mm
Dir
 
Spd
km/h
Gust
km/h
Spd
kts
Gust
kts
24/11:30pm 20.2 18.7 11.9 59 4.7 NNE 11 17 6 9 1019.7 1018.4 0.0
24/11:00pm 21.1 17.6 12.3 57 5.0 NNE 22 32 12 17 1019.7 1018.4 0.0
24/10:30pm 21.4 17.8 12.0 55 5.4 N 22 32 12 17 1020.3 1019.1 0.0
24/10:00pm 22.2 17.2 12.2 53 5.7 N 30 37 16 20 1020.0 1018.7 0.0
24/09:30pm 23.0 18.7 12.0 50 6.3 NNE 26 32 14 17 1020.2 1019.0 0.0
24/09:00pm 24.1 20.0 11.4 45 7.2 NNE 24 33 13 18 1020.3 1019.1 0.0
24/08:30pm 24.9 21.6 9.6 38 8.5 NNE 17 22 9 12 1020.1 1018.8 0.0
24/08:00pm 25.3 21.3 8.3 34 9.2 NE 19 24 10 13 1019.7 1018.4 0.0
24/07:30pm 25.4 21.5 7.1 31 9.8 NE 17 20 9 11 1019.1 1017.8 0.0
24/07:00pm 26.9 22.1 7.4 29 10.5 NE 22 26 12 14 1018.5 1017.2 0.0
24/06:30pm 27.3 23.4 7.2 28 10.9 ENE 17 22 9 12 1018.0 1016.7 0.0
24/06:00pm 28.8 25.6 5.0 22 12.5 ENE 11 15 6 8 1017.7 1016.5 0.0
24/05:30pm 30.6 28.2 5.1 20 13.5 ESE 7 11 4 6 1017.4 1016.1 0.0
24/05:00pm 31.4 27.6 5.8 20 13.8 ESE 15 20 8 11 1017.1 1015.8 0.0
24/04:30pm 31.2 28.1 5.6 20 13.8 ESE 11 17 6 9 1017.0 1015.7 0.0
24/04:00pm 31.3 29.3 6.4 21 13.5 NW 6 15 3 8 1017.1 1015.8 0.0
24/03:30pm 31.1 27.4 6.2 21 13.5 S 15 26 8 14 1017.3 1016.0 0.0
24/03:00pm 31.6 27.2 6.6 21 13.7 ESE 19 26 10 14 1017.4 1016.1 0.0
24/02:30pm 31.2 26.8 7.6 23 13.1 E 20 26 11 14 1017.9 1016.6 0.0
24/02:00pm 31.0 28.3 7.5 23 13.0 SW 11 22 6 12 1018.3 1017.0 0.0
24/01:30pm 30.8 29.1 8.5 25 12.5 SSE 7 17 4 9 1018.7 1017.4 0.0
24/01:00pm 29.4 27.6 7.9 26 11.9 ENE 7 13 4 7 1019.3 1018.0 0.0
24/12:30pm 28.8 27.0 7.9 27 11.5 NNW 7 13 4 7 1019.8 1018.5 0.0
24/12:00pm 28.2 26.4 9.5 31 10.5 NE 9 15 5 8 1020.4 1019.2 0.0
24/11:30am 27.4 25.6 9.3 32 10.1 NW 9 15 5 8 1021.0 1019.7 0.0
24/11:00am 26.8 25.5 10.1 35 9.4 WNW 7 15 4 8 1021.3 1020.0 0.0
24/10:30am 25.5 23.9 10.1 38 8.7 NW 9 17 5 9 1021.9 1020.6 0.0
24/10:00am 24.5 22.8 11.1 43 7.6 N 11 22 6 12 1022.4 1021.1 0.0
24/09:30am 23.7 21.6 11.1 45 7.1 N 13 17 7 9 1022.5 1021.2 0.0
24/09:00am 22.1 20.4 11.2 50 6.1 N 11 20 6 11 1022.9 1021.7 0.0
24/08:30am 21.5 18.7 11.5 53 5.7 N 17 26 9 14 1023.1 1021.9 0.0
24/08:00am 20.6 18.0 12.1 58 4.8 N 17 24 9 13 1023.1 1021.9 0.0
24/07:30am 19.3 16.2 12.1 63 4.1 NNW 20 28 11 15 1022.8 1021.6 0.0
24/07:00am 18.9 16.2 12.9 68 3.4 N 19 26 10 14 1022.7 1021.5 0.0
24/06:30am 17.3 14.3 11.8 70 3.1 NNW 19 24 10 13 1022.3 1021.0 0.0
24/06:00am 15.7 14.4 11.1 74 2.5 NNW 9 15 5 8 1022.0 1020.7 0.0
24/05:30am 13.9 12.4 9.3 74 2.4 NW 7 9 4 5 1021.6 1020.3 0.0
24/05:00am 13.5 12.1 8.8 73 2.4 N 6 11 3 6 1020.7 1019.5 0.0
24/04:30am 14.6 12.1 9.8 73 2.5 NNW 13 15 7 8 1020.5 1019.3 0.0
24/04:00am 14.2 11.8 8.6 69 2.9 NNW 11 13 6 7 1020.2 1019.0 0.0
24/03:30am 15.4 13.1 8.9 65 3.4 N 11 13 6 7 1020.1 1018.8 0.0
24/03:00am 16.0 14.0 8.7 62 3.8 N 9 15 5 8 1020.1 1018.8 0.0
24/02:30am 17.1 14.4 9.0 59 4.3 N 13 15 7 8 1019.9 1018.6 0.0
24/02:00am 17.0 14.4 9.2 60 4.1 NNE 13 17 7 9 1019.9 1018.6 0.0
24/01:30am 18.0 13.8 9.6 58 4.5 N 22 30 12 16 1019.8 1018.5 0.0
24/01:00am 19.0 15.0 10.3 57 4.7 NNW 22 28 12 15 1019.7 1018.4 0.0
24/12:30am 17.8 14.8 9.4 58 4.5 N 15 17 8 9 1020.4 1019.2 0.0
24/12:00am 18.6 16.7 9.1 54 5.0 NE 9 11 5 6 1020.8 1019.6 0.0
 
Date/Time
EST
Temp
°C
App
Temp
°C
Dew
Point
Rel
Hum
%
Delta-T
°C
Wind Press
QNH
hPa
Press
MSL
hPa
Rain
since 9 am
mm
Dir
 
Spd
km/h
Gust
km/h
Spd
kts
Gust
kts
23/11:30pm 18.9 17.2 9.7 55 5.0 E 9 13 5 7 1021.3 1020.0 0.0
23/11:00pm 20.9 17.5 10.7 52 5.6 ESE 19 24 10 13 1021.3 1020.0 0.0
23/10:30pm 22.0 17.1 9.9 46 6.7 SE 26 33 14 18 1020.7 1019.5 0.0
23/10:00pm 22.4 17.9 6.2 35 8.3 ESE 19 24 10 13 1020.3 1019.1 0.0
23/09:30pm 23.6 20.3 6.4 33 9.0 ESE 13 17 7 9 1020.5 1019.3 0.0
23/09:00pm 25.1 21.7 5.8 29 10.0 SE 13 19 7 10 1020.5 1019.3 0.0
23/08:30pm 25.4 20.8 6.6 30 9.9 E 20 24 11 13 1019.8 1018.5 0.0
23/08:00pm 24.3 20.6 7.9 35 8.8 W 17 20 9 11 1018.9 1017.6 0.0
23/07:30pm 25.9 22.3 8.4 33 9.6 WSW 17 22 9 12 1018.8 1017.5 0.0
23/07:00pm 25.5 24.3 4.6 26 10.7 CALM 0 0 0 0 1018.2 1016.9 0.0
23/06:30pm 27.2 26.2 5.5 25 11.4 CALM 0 0 0 0 1017.6 1016.4 0.0
23/06:00pm 28.5 27.5 5.4 23 12.2 CALM 0 0 0 0 1017.3 1016.0 0.0

Other Formats:

Comma delimited format used in spreadsheet applications
http://www.bom.gov.au/fwo/IDQ60801/IDQ60801.94542.axf

JavaScript Object Notation format (JSON) in row-major order
http://www.bom.gov.au/fwo/IDQ60801/IDQ60801.94542.json